createdAt,value
2018-07-25T03:02:04.692Z,79.52
2018-07-25T03:03:07.803Z,78.84
2018-07-25T03:04:06.736Z,79.71
2018-07-25T03:05:05.079Z,79.61
2018-07-25T03:06:04.680Z,79.76
2018-07-25T03:07:06.165Z,79.57
2018-07-25T03:08:05.457Z,80.19
2018-07-25T03:09:05.800Z,80.53
2018-07-25T03:10:06.233Z,80.43
2018-07-25T03:11:07.217Z,80.34
2018-07-25T03:12:06.402Z,80.91
2018-07-25T03:13:06.590Z,80.73
2018-07-25T03:14:07.229Z,80.82
2018-07-25T03:15:06.221Z,81.20
2018-07-25T03:16:04.566Z,81.59
2018-07-25T03:17:04.638Z,81.30
2018-07-25T03:18:04.754Z,81.20
2018-07-25T03:19:05.028Z,80.82
2018-07-25T03:20:05.198Z,80.63
2018-07-25T03:21:05.383Z,80.53
2018-07-25T03:22:05.524Z,80.43
2018-07-25T03:23:05.693Z,80.34
2018-07-25T03:24:05.976Z,80.73
2018-07-25T03:25:06.011Z,80.63
2018-07-25T03:26:06.290Z,80.43
2018-07-25T03:27:06.350Z,80.53
2018-07-25T03:28:06.531Z,80.63
2018-07-25T03:29:06.721Z,80.73
2018-07-25T03:30:06.929Z,80.53
2018-07-25T03:31:07.060Z,80.66
2018-07-25T03:32:07.235Z,80.82
2018-07-25T03:33:07.411Z,80.53
2018-07-25T03:34:07.669Z,80.53
2018-07-25T03:35:07.693Z,81.30
2018-07-25T03:36:07.888Z,80.63
2018-07-25T03:37:08.123Z,81.30
2018-07-25T03:38:08.263Z,81.30
2018-07-25T03:39:08.394Z,81.01
2018-07-25T03:40:08.577Z,80.63
2018-07-25T03:41:08.700Z,80.73
2018-07-25T03:42:08.913Z,80.47
2018-07-25T03:43:09.073Z,80.53
2018-07-25T03:44:09.311Z,80.19
2018-07-25T03:45:09.411Z,80.66
2018-07-25T03:46:09.689Z,80.43
2018-07-25T03:47:09.823Z,80.34
2018-07-25T03:48:10.040Z,81.01
2018-07-25T03:49:10.123Z,80.43
2018-07-25T03:50:10.256Z,80.57
2018-07-25T03:51:10.420Z,80.34
2018-07-25T03:52:10.581Z,80.53
2018-07-25T03:53:10.751Z,80.82
2018-07-25T03:54:11.015Z,80.53
2018-07-25T03:55:11.137Z,80.53
2018-07-25T03:56:11.431Z,81.01
2018-07-25T03:57:11.559Z,81.20
2018-07-25T03:58:11.692Z,81.59
2018-07-25T03:59:11.836Z,81.10
2018-07-25T04:00:12.077Z,81.30
2018-07-25T04:01:12.995Z,81.10
2018-07-25T04:02:12.419Z,81.10
2018-07-25T04:03:12.995Z,81.68
2018-07-25T04:04:12.786Z,81.30
2018-07-25T04:05:13.144Z,80.91
2018-07-25T04:06:13.276Z,80.82
2018-07-25T04:07:13.587Z,80.63
2018-07-25T04:08:13.646Z,81.68
2018-07-25T04:09:13.872Z,81.40
2018-07-25T04:10:14.113Z,81.20
2018-07-25T04:11:13.962Z,80.91
2018-07-25T04:12:14.219Z,80.63
2018-07-25T04:13:14.375Z,80.53
2018-07-25T04:14:14.605Z,81.01
2018-07-25T04:15:14.735Z,81.59
2018-07-25T04:16:14.953Z,81.20
2018-07-25T04:17:15.315Z,81.20
2018-07-25T04:18:15.424Z,81.30
2018-07-25T04:19:15.795Z,81.10
2018-07-25T04:20:15.760Z,81.30
2018-07-25T04:21:16.000Z,81.49
2018-07-25T04:22:16.326Z,81.78
2018-07-25T04:23:16.160Z,82.21
2018-07-25T04:24:16.509Z,82.41
2018-07-25T04:25:16.647Z,81.93
2018-07-25T04:26:16.893Z,82.79
2018-07-25T04:27:17.114Z,82.89
2018-07-25T04:28:17.196Z,82.89
2018-07-25T04:29:17.568Z,82.89
2018-07-25T04:30:17.564Z,82.89
2018-07-25T04:31:17.692Z,82.98
2018-07-25T04:32:17.931Z,82.35
2018-07-25T04:33:18.121Z,82.21
2018-07-25T04:34:18.172Z,82.31
2018-07-25T04:35:18.639Z,82.31
2018-07-25T04:36:18.588Z,82.21
2018-07-25T04:37:18.632Z,82.98
2018-07-25T04:38:18.920Z,83.37
2018-07-25T04:39:21.877Z,82.98
2018-07-25T04:40:19.224Z,83.65
2018-07-25T04:41:19.432Z,83.37
2018-07-25T04:42:19.619Z,83.75
2018-07-25T04:43:20.828Z,83.80
2018-07-25T04:44:19.918Z,83.41
2018-07-25T04:45:20.142Z,83.31
2018-07-25T04:46:20.298Z,83.41
2018-07-25T04:47:20.445Z,83.60
2018-07-25T04:48:20.588Z,83.31
2018-07-25T04:49:20.753Z,83.80
2018-07-25T04:50:21.096Z,83.89
2018-07-25T04:51:21.099Z,82.64
2018-07-25T04:52:21.240Z,83.03
2018-07-25T04:53:21.463Z,82.74
2018-07-25T04:54:21.566Z,82.74
2018-07-25T04:55:21.734Z,82.54
2018-07-25T04:56:21.868Z,82.64
2018-07-25T04:57:22.165Z,82.93
2018-07-25T04:58:22.299Z,83.03
2018-07-25T04:59:22.496Z,82.74
2018-07-25T05:00:22.696Z,81.97
2018-07-25T05:01:22.825Z,82.35
2018-07-25T05:02:23.019Z,82.16
2018-07-25T05:03:23.118Z,82.20
2018-07-25T05:04:23.339Z,82.01
2018-07-25T05:05:23.531Z,82.01
2018-07-25T05:06:24.475Z,82.10
2018-07-25T05:07:23.890Z,82.01
2018-07-25T05:08:25.716Z,81.92
2018-07-25T05:09:24.291Z,82.10
2018-07-25T05:10:24.394Z,81.72
2018-07-25T05:11:24.558Z,81.72
2018-07-25T05:12:24.799Z,81.72
2018-07-25T05:13:24.969Z,81.72
2018-07-25T05:14:25.050Z,81.34
2018-07-25T05:15:25.278Z,81.48
2018-07-25T05:16:25.347Z,81.05
2018-07-25T05:17:25.551Z,81.19
2018-07-25T05:18:25.731Z,81.19
2018-07-25T05:19:25.801Z,80.71
2018-07-25T05:20:26.061Z,80.42
2018-07-25T05:21:26.149Z,80.80
2018-07-25T05:22:26.409Z,80.71
2018-07-25T05:23:28.952Z,80.51
2018-07-25T05:41:58.585Z,78.28
2018-07-25T05:42:53.749Z,78.71
2018-07-25T05:43:53.178Z,78.81
2018-07-25T05:44:51.956Z,78.71
2018-07-25T05:45:52.260Z,78.61
2018-07-25T05:46:52.252Z,77.84
2018-07-25T05:47:52.337Z,77.65
2018-07-25T05:48:52.501Z,77.75
2018-07-25T05:49:52.542Z,77.46
2018-07-25T05:50:52.746Z,77.84
2018-07-25T05:51:52.937Z,77.56
2018-07-25T05:52:53.056Z,77.21
2018-07-25T05:53:53.303Z,76.82
2018-07-25T05:54:53.470Z,76.44
2018-07-25T05:55:53.594Z,75.76
2018-07-25T05:56:54.812Z,76.63
2018-07-25T05:57:54.041Z,75.67
2018-07-25T05:58:54.097Z,75.03
2018-07-25T05:59:54.245Z,74.45
2018-07-25T06:00:54.410Z,74.26
2018-07-25T06:01:54.525Z,73.53
2018-07-25T06:02:54.790Z,74.40
2018-07-25T06:03:54.959Z,74.30
2018-07-25T06:04:55.132Z,74.01
2018-07-25T06:05:55.407Z,73.82
2018-07-25T06:06:55.569Z,73.14
2018-07-25T06:07:55.707Z,73.14
2018-07-25T06:08:55.905Z,72.79
2018-07-25T06:09:56.041Z,72.50
2018-07-25T06:10:56.185Z,71.64
2018-07-25T06:11:56.327Z,70.86
2018-07-25T06:12:56.520Z,71.44
2018-07-25T06:13:56.697Z,70.42
2018-07-25T06:14:56.930Z,70.32
2018-07-25T06:15:56.992Z,70.13
2018-07-25T06:16:57.275Z,70.03
2018-07-25T06:17:57.390Z,69.84
2018-07-25T06:18:57.568Z,69.87
2018-07-25T06:19:57.738Z,70.16
2018-07-25T06:20:57.983Z,70.61
2018-07-25T06:21:58.048Z,70.64
2018-07-25T06:22:58.276Z,70.26
2018-07-25T06:23:58.409Z,70.26
2018-07-25T06:24:58.569Z,68.55
2018-07-25T06:25:58.865Z,67.88
2018-07-25T06:26:58.928Z,67.30
2018-07-25T06:27:59.088Z,67.69
2018-07-25T06:28:59.221Z,67.49
2018-07-25T06:29:59.383Z,67.30
2018-07-25T06:30:59.592Z,66.56
2018-07-25T06:31:59.820Z,66.08
2018-07-25T06:32:59.941Z,65.88
2018-07-25T06:34:00.105Z,65.20
2018-07-25T06:35:00.269Z,64.47
2018-07-25T06:36:00.520Z,64.85
2018-07-25T06:37:00.664Z,64.18
2018-07-25T06:38:00.916Z,64.76
2018-07-25T06:39:00.987Z,64.47
2018-07-25T06:40:01.240Z,64.95
2018-07-25T06:41:01.367Z,64.59
2018-07-25T06:42:01.552Z,64.40
2018-07-25T06:43:01.880Z,64.21
2018-07-25T06:44:01.891Z,64.31
2018-07-25T06:45:02.206Z,64.43
2018-07-25T06:46:02.355Z,63.56
2018-07-25T06:47:02.612Z,63.18
2018-07-25T06:48:02.659Z,63.27
2018-07-25T06:49:03.039Z,62.69
2018-07-25T06:50:03.036Z,62.40
2018-07-25T06:51:03.193Z,62.30
2018-07-25T06:52:03.364Z,61.36
2018-07-25T06:53:03.534Z,61.66
2018-07-25T06:54:03.811Z,60.98
2018-07-25T06:55:03.923Z,61.56
2018-07-25T06:56:04.106Z,61.27
2018-07-25T06:57:04.199Z,61.01
2018-07-25T06:58:04.375Z,61.01
2018-07-25T06:59:04.617Z,60.62
2018-07-25T07:00:04.701Z,60.82
2018-07-25T07:01:04.905Z,60.62
2018-07-25T07:02:05.169Z,61.11
2018-07-25T07:03:05.306Z,60.82
2018-07-25T07:04:05.608Z,60.62
2018-07-25T07:05:05.732Z,60.46
2018-07-25T07:06:05.796Z,59.88
2018-07-25T07:07:05.907Z,59.97
2018-07-25T07:08:06.090Z,60.07
2018-07-25T07:09:06.370Z,60.10
2018-07-25T07:10:06.543Z,60.00
2018-07-25T07:11:06.711Z,59.71
2018-07-25T07:12:06.865Z,59.23
2018-07-25T07:13:06.940Z,59.74
2018-07-25T07:14:07.216Z,59.33
2018-07-25T07:15:07.401Z,58.94
2018-07-25T07:16:07.474Z,58.77
2018-07-25T07:17:07.662Z,58.58
2018-07-25T07:18:07.901Z,59.33
2018-07-25T07:19:08.020Z,58.67
2018-07-25T07:20:08.096Z,59.36
2018-07-25T07:21:08.353Z,59.74
2018-07-25T07:22:08.488Z,59.55
2018-07-25T07:23:08.663Z,59.09
2018-07-25T07:24:08.888Z,58.70
2018-07-25T07:25:08.996Z,58.03
2018-07-25T07:26:09.277Z,58.22
2018-07-25T07:27:09.384Z,57.57
2018-07-25T07:28:09.513Z,57.47
2018-07-25T07:29:09.765Z,57.37
2018-07-25T07:30:09.965Z,58.54
2018-07-25T07:31:10.117Z,57.08
2018-07-25T07:32:10.260Z,57.60
2018-07-25T07:33:10.386Z,58.37
2018-07-25T07:34:10.622Z,57.50
2018-07-25T07:35:10.826Z,56.52
2018-07-25T07:36:11.025Z,55.88
2018-07-25T07:37:11.201Z,56.56
2018-07-25T07:38:11.362Z,55.78
2018-07-25T07:39:11.521Z,56.29
2018-07-25T07:40:11.705Z,55.51
2018-07-25T07:41:11.897Z,54.83
2018-07-25T07:42:12.014Z,54.44
2018-07-25T07:43:12.265Z,54.96
2018-07-25T07:44:12.481Z,54.57
2018-07-25T07:45:12.620Z,54.28
2018-07-25T07:46:12.695Z,53.99
2018-07-25T07:47:12.861Z,54.01
2018-07-25T07:48:13.166Z,54.40
2018-07-25T07:49:13.289Z,54.30
2018-07-25T07:50:13.612Z,52.75
2018-07-25T07:51:13.672Z,52.65
2018-07-25T07:52:13.844Z,52.94
2018-07-25T07:53:14.006Z,53.06
2018-07-25T07:54:14.147Z,51.51
2018-07-25T07:55:14.332Z,51.92
2018-07-25T07:56:14.681Z,52.02
2018-07-25T07:57:14.734Z,52.02
2018-07-25T07:58:14.873Z,51.53
2018-07-25T07:59:15.180Z,49.90
2018-07-25T08:00:15.189Z,49.32
2018-07-25T08:01:15.394Z,50.09
2018-07-25T08:02:15.495Z,49.90
2018-07-25T08:03:16.227Z,50.38
2018-07-25T08:04:15.962Z,49.24
2018-07-25T08:05:16.094Z,49.24
2018-07-25T08:06:16.353Z,49.54
2018-07-25T08:07:16.495Z,49.34
2018-07-25T08:08:16.709Z,47.90
2018-07-25T08:09:16.825Z,48.19
2018-07-25T08:10:16.985Z,48.39
2018-07-25T08:11:17.154Z,49.22
2018-07-25T08:12:17.372Z,47.66
2018-07-25T08:13:18.171Z,46.41
2018-07-25T08:14:17.656Z,46.72
2018-07-25T08:15:17.779Z,45.86
2018-07-25T08:16:18.052Z,45.40
2018-07-25T08:17:18.218Z,43.85
2018-07-25T08:18:18.295Z,43.38
2018-07-25T08:19:18.491Z,41.37
2018-07-25T08:20:18.749Z,41.68
2018-07-25T08:21:18.947Z,41.51
2018-07-25T08:22:19.167Z,39.15
2018-07-25T08:23:19.404Z,39.54
2018-07-25T08:24:19.457Z,38.96
2018-07-25T08:25:19.592Z,39.37
2018-07-25T08:26:19.754Z,38.31
2018-07-25T08:27:19.917Z,37.54
2018-07-25T08:28:20.182Z,37.46
2018-07-25T08:29:20.315Z,38.05
2018-07-25T08:30:20.411Z,36.47
2018-07-25T08:31:20.654Z,36.77
2018-07-25T08:32:20.812Z,36.38
2018-07-25T08:33:21.046Z,35.63
2018-07-25T08:34:21.251Z,35.54
2018-07-25T08:35:21.354Z,34.46
2018-07-25T08:36:21.491Z,34.17
2018-07-25T08:37:21.769Z,34.25
2018-07-25T08:38:21.956Z,34.48
2018-07-25T08:39:22.094Z,34.20
2018-07-25T08:40:22.370Z,34.22
2018-07-25T08:41:22.499Z,33.23
2018-07-25T08:42:22.707Z,31.86
2018-07-25T08:43:22.888Z,32.07
2018-07-25T08:44:22.952Z,31.09
2018-07-25T08:45:23.212Z,30.40
2018-07-25T08:46:23.460Z,30.48
2018-07-25T08:47:23.503Z,29.61
2018-07-25T08:48:23.742Z,30.10
2018-07-25T08:49:23.817Z,29.82
2018-07-25T08:50:24.072Z,31.10
2018-07-25T08:51:24.308Z,28.61
2018-07-25T08:52:24.453Z,28.69
2018-07-25T08:53:24.571Z,29.66
2018-07-25T08:54:24.873Z,28.97
2018-07-25T08:55:24.980Z,29.28
2018-07-25T08:56:25.216Z,29.66
2018-07-25T08:57:25.313Z,30.45
2018-07-25T08:58:25.541Z,30.04
2018-07-25T08:59:25.708Z,29.55
2018-07-25T09:00:25.953Z,30.72
2018-07-25T09:01:26.113Z,31.11
2018-07-25T09:02:26.290Z,30.51
2018-07-25T09:03:26.393Z,31.77
2018-07-25T09:04:26.701Z,31.09
2018-07-25T09:05:26.960Z,31.66
2018-07-25T09:06:26.980Z,31.95
2018-07-25T09:07:27.260Z,32.54
2018-07-25T09:08:27.365Z,32.53
2018-07-25T09:09:27.564Z,31.45
2018-07-25T09:10:27.791Z,32.53
2018-07-25T09:11:27.872Z,33.22
2018-07-25T09:12:28.085Z,32.53
2018-07-25T09:13:28.284Z,33.51
2018-07-25T09:14:28.364Z,34.38
2018-07-25T09:15:28.530Z,32.59
2018-07-25T09:16:30.692Z,32.69
2018-07-25T09:17:29.054Z,33.56
2018-07-25T09:18:29.344Z,34.25
2018-07-25T09:19:30.480Z,34.05
2018-07-25T09:20:29.562Z,35.23
2018-07-25T09:21:29.864Z,33.67
2018-07-25T09:22:30.122Z,33.58
2018-07-25T09:23:30.652Z,34.66
2018-07-25T09:24:30.531Z,34.08
2018-07-25T09:28:29.996Z,33.79
2018-07-25T09:29:24.195Z,33.29
2018-07-25T09:34:12.659Z,33.29
2018-07-25T09:34:48.516Z,33.51
2018-07-25T09:41:40.151Z,33.91
2018-07-25T09:42:59.142Z,33.80
2018-07-25T09:43:29.021Z,32.82
2018-07-25T09:45:35.610Z,32.92
2018-07-25T09:52:56.840Z,32.21
2018-07-25T10:22:58.125Z,23.63
2018-07-25T13:26:24.021Z,20.19
2018-07-25T13:29:36.172Z,20.67
2018-07-25T13:30:19.227Z,21.03
2018-07-25T13:31:16.786Z,23.00
2018-07-25T13:32:14.697Z,22.69
2018-07-25T13:33:14.961Z,24.76
2018-07-25T13:34:12.504Z,23.89
2018-07-25T13:35:12.520Z,21.65
2018-07-25T13:36:12.853Z,20.68
2018-07-25T13:37:12.905Z,19.90
2018-07-25T13:38:13.032Z,19.13
2018-07-25T13:39:13.386Z,18.64
2018-07-25T13:40:34.812Z,17.66
2018-07-25T13:41:25.450Z,17.48
2018-07-25T13:42:24.185Z,17.66
2018-07-25T13:43:20.709Z,18.04
2018-07-25T13:44:17.512Z,19.10
2018-07-25T13:45:16.854Z,19.67
2018-07-25T13:46:17.154Z,20.15
2018-07-25T13:47:15.969Z,20.92
2018-07-25T13:48:15.201Z,21.40
2018-07-25T13:49:15.262Z,21.50
2018-07-25T13:50:15.522Z,22.56
2018-07-25T13:51:16.555Z,23.05
2018-07-25T13:52:17.588Z,23.54
2018-07-25T13:53:16.392Z,23.52
2018-07-25T13:54:16.323Z,24.40
2018-07-25T13:55:21.320Z,25.08
2018-07-25T13:56:17.120Z,25.67
2018-07-25T13:57:17.146Z,26.26
2018-07-25T13:58:17.254Z,25.66
2018-07-25T13:59:17.824Z,25.65
2018-07-25T14:00:18.031Z,26.32
2018-07-25T14:01:18.288Z,26.13
2018-07-25T14:02:21.762Z,26.61
2018-07-25T14:03:18.061Z,27.69
2018-07-25T14:04:19.377Z,27.58
2018-07-25T14:05:18.637Z,28.17
2018-07-25T14:06:18.535Z,27.86
2018-07-25T14:11:32.435Z,28.83
2018-07-25T14:13:41.368Z,27.85
2018-07-25T14:15:03.406Z,28.74
2018-07-25T14:15:39.950Z,28.93
2018-07-25T14:16:50.956Z,27.54
2018-07-25T14:17:36.917Z,27.75
2018-07-25T14:18:31.640Z,27.95
2018-07-25T14:19:30.147Z,28.64
2018-07-25T14:20:30.247Z,28.52
2018-07-25T14:21:29.599Z,29.03
2018-07-25T14:22:28.039Z,30.11
2018-07-25T14:23:28.303Z,30.31
2018-07-25T14:24:28.135Z,30.11
2018-07-25T14:25:28.760Z,30.02
2018-07-25T14:26:28.588Z,29.23
2018-07-25T14:27:28.664Z,29.21
2018-07-25T14:28:29.169Z,30.21
2018-07-25T14:29:29.097Z,28.83
2018-07-25T14:30:29.458Z,29.74
2018-07-25T14:31:29.553Z,30.02
2018-07-25T14:32:29.675Z,28.83
2018-07-25T14:33:29.890Z,29.53
2018-07-25T14:34:32.104Z,28.93
2018-07-25T14:48:32.511Z,26.70
2018-07-25T14:52:34.839Z,25.16
2018-07-25T14:53:29.031Z,24.71
2018-07-25T14:55:29.416Z,22.47
2018-07-25T14:56:27.428Z,22.89
2018-07-25T14:57:46.823Z,22.70
2018-07-25T15:00:34.271Z,20.73
2018-07-25T15:03:23.749Z,19.46
2018-07-25T15:04:24.094Z,19.97
2018-07-25T15:05:20.938Z,19.78
2018-07-25T15:07:45.152Z,18.91
2018-07-25T15:08:26.718Z,18.52
2018-07-25T15:14:10.967Z,18.04
2018-07-25T15:15:54.509Z,18.15
2018-07-25T15:17:31.003Z,18.43
2018-07-25T15:26:57.578Z,20.29
2018-07-25T15:29:55.564Z,22.00
2018-07-25T15:30:54.297Z,22.67
2018-07-25T15:32:56.154Z,23.83
2018-07-25T15:33:52.881Z,23.54
2018-07-25T15:34:52.283Z,24.41
2018-07-25T15:35:52.379Z,24.80
2018-07-25T15:36:52.986Z,24.60
2018-07-25T15:37:52.771Z,24.71
2018-07-25T15:38:53.499Z,25.28
2018-07-25T15:39:53.304Z,25.27
2018-07-25T15:42:05.156Z,26.14
2018-07-25T15:43:03.096Z,26.13
2018-07-25T15:45:24.025Z,26.25
2018-07-25T15:51:22.511Z,23.88
2018-07-25T15:52:32.249Z,23.29
2018-07-25T15:53:23.916Z,22.62
2018-07-25T16:06:14.888Z,21.04
2018-07-25T16:08:16.798Z,21.43
2018-07-25T16:14:17.696Z,22.97
2018-07-25T16:15:17.948Z,23.66
2018-07-25T16:17:14.960Z,23.25
2018-07-25T16:18:25.546Z,23.35
2018-07-25T16:20:18.304Z,22.86
2018-07-25T16:22:30.211Z,23.05
2018-07-25T16:24:23.095Z,24.71
2018-07-25T16:26:23.866Z,25.18
2018-07-25T16:27:18.482Z,26.45
2018-07-25T16:28:19.535Z,26.03
2018-07-25T16:29:17.920Z,26.62
2018-07-25T16:30:15.641Z,26.40
2018-07-25T16:31:15.356Z,26.79
2018-07-25T16:32:15.474Z,26.70
2018-07-25T16:33:16.487Z,26.59
2018-07-25T16:34:16.074Z,26.61
2018-07-25T16:35:15.915Z,26.41
2018-07-25T16:36:16.375Z,25.82
2018-07-25T16:37:16.521Z,26.20
2018-07-25T16:38:16.712Z,26.59
2018-07-25T16:39:16.715Z,27.39
2018-07-25T16:40:17.611Z,27.47
2018-07-25T16:41:17.346Z,27.86
2018-07-25T16:42:17.435Z,27.16
2018-07-25T16:43:17.773Z,27.08
2018-07-25T16:44:17.853Z,27.37
2018-07-25T16:45:18.502Z,27.19
2018-07-25T16:46:18.279Z,26.68
2018-07-25T16:47:18.723Z,26.59
2018-07-25T16:48:18.905Z,26.78
2018-07-25T16:49:18.886Z,26.68
2018-07-25T16:50:19.601Z,27.86
2018-07-25T16:51:19.185Z,27.45
2018-07-25T16:52:26.548Z,27.85
2018-07-25T16:53:19.968Z,28.14
2018-07-25T16:54:20.210Z,27.74
2018-07-25T16:55:20.497Z,27.84
2018-07-25T17:14:03.246Z,31.90
2018-07-25T17:14:57.861Z,32.30
2018-07-25T17:39:30.118Z,32.27
2018-07-25T17:40:45.439Z,32.76
2018-07-25T17:46:20.909Z,33.33
2018-07-25T17:47:41.811Z,33.53
2018-07-25T17:48:08.868Z,33.82
2018-07-25T17:50:04.605Z,33.82
2018-07-25T17:51:08.825Z,34.00
2018-07-25T17:52:05.280Z,34.10
2018-07-25T17:59:45.681Z,35.85
2018-07-25T18:04:04.595Z,37.00
2018-07-25T18:05:07.950Z,37.10
2018-07-25T18:07:07.191Z,37.27
2018-07-25T18:08:07.970Z,37.26
2018-07-25T18:09:07.390Z,37.45
2018-07-25T18:10:06.343Z,37.75
2018-07-25T18:11:07.670Z,38.24
2018-07-25T18:12:07.766Z,39.49
2018-07-25T18:13:09.392Z,40.08
2018-07-25T18:14:08.767Z,39.98
2018-07-25T18:16:18.325Z,40.74
2018-07-25T18:22:25.565Z,41.42
2018-07-25T18:31:33.746Z,41.38
2018-07-25T18:32:37.418Z,41.97
2018-07-25T18:33:32.077Z,42.07
2018-07-25T18:34:31.354Z,42.26
2018-07-25T18:35:27.582Z,42.63
2018-07-25T18:37:29.596Z,42.83
2018-07-25T18:39:29.574Z,42.24
2018-07-25T18:40:27.443Z,41.17
2018-07-25T18:41:26.506Z,41.56
2018-07-25T18:42:26.442Z,41.44
2018-07-25T18:43:26.460Z,41.56
2018-07-25T18:44:26.595Z,42.41
2018-07-25T18:45:26.781Z,42.61
2018-07-25T18:46:27.034Z,42.51
2018-07-25T18:47:27.241Z,43.39
2018-07-25T18:48:27.255Z,43.49
2018-07-25T18:49:27.465Z,43.39
2018-07-25T18:50:27.959Z,43.68
2018-07-25T18:51:28.270Z,43.39
2018-07-25T18:52:28.811Z,43.88
2018-07-25T18:53:28.497Z,43.49
2018-07-25T18:54:28.602Z,43.78
2018-07-25T18:55:28.797Z,43.66
2018-07-25T18:56:29.184Z,43.98
2018-07-25T18:57:29.323Z,43.95
2018-07-25T18:58:29.693Z,43.78
2018-07-25T19:05:03.867Z,45.12
2018-07-25T19:07:12.500Z,46.08
2018-07-25T19:10:09.434Z,46.27
2018-07-25T19:11:04.467Z,46.54
2018-07-25T19:12:03.754Z,46.66
2018-07-25T19:13:01.753Z,46.44
2018-07-25T19:14:00.930Z,46.44
2018-07-25T19:15:00.857Z,46.15
2018-07-25T19:16:00.968Z,46.25
2018-07-25T19:17:01.047Z,46.83
2018-07-25T19:18:01.503Z,46.44
2018-07-25T19:19:01.850Z,46.54
2018-07-25T19:20:01.786Z,46.54
2018-07-25T19:21:02.372Z,46.54
2018-07-25T19:22:02.207Z,47.00
2018-07-25T19:23:02.551Z,47.03
2018-07-25T19:24:02.823Z,47.03
2018-07-25T19:26:38.844Z,47.69
2018-07-25T19:27:38.437Z,46.91
2018-07-25T19:28:39.813Z,47.30
2018-07-25T19:29:39.012Z,47.59
2018-07-25T19:30:44.844Z,47.59
2018-07-25T19:31:51.058Z,47.59
2018-07-25T19:33:43.167Z,47.49
2018-07-25T19:35:40.538Z,47.86
2018-07-25T19:36:40.573Z,48.15
2018-07-25T19:38:40.224Z,49.32
2018-07-25T19:39:38.584Z,49.29
2018-07-25T19:40:37.751Z,49.39
2018-07-25T19:41:37.825Z,49.19
2018-07-25T19:42:37.936Z,48.32
2018-07-25T19:43:38.233Z,47.93
2018-07-25T19:44:38.374Z,48.03
